Orange, Massachusetts
Current Conditions -  °F | °C
As of 1:52 PM on Saturday 25 Oct 2014 (Local Time) from KORE Reporting Station
Clear Clear  
Wind Chill: 60°   Ceiling: Unl
Heat Index: 60°   Visibility: 10mi
Dew Point: 39°   Wind: 5mph
Humidity: 46%   Direction: 230°SW
Pressure: 29.66"   Gusts: NA
Location:  42.59°N, 72.3°W
Report Text: KORE 251752Z AUTO 23004KT 10SM CLR 16/04 A2966 RMK AO2 SLP044 T01560039 10156 20017 58033
Loading
Personal Weather Stations






























Interactive Weather Map
Tropical Storm Tracking
New forecast layout! Learn more

10-Day Weather Forecast

Advertisements
Track Severe Weather on mobile